Time;durP1;ratioP1;P1;durP2;ratioP2;P2;SDS_P1;SDS_P2;PMS_P1;PMS_P2;Temp;Humidity;BMP_temperature;BMP_pressure;BME280_temperature;BME280_humidity;BME280_pressure;Samples;Min_cycle;Max_cycle;Signal;HPM_P1;HPM_P2
2022/10/16 00:02:24;;;;;;;5.33;2.27;;;;;;;;;;5099120;28;20220;-63
2022/10/16 00:04:52;;;;;;;2.67;2.00;;;;;;;;;;5098804;28;20239;-63
2022/10/16 00:07:20;;;;;;;2.90;2.00;;;;;;;;;;5099093;28;20206;-63
2022/10/16 00:09:49;;;;;;;2.83;2.03;;;;;;;;;;5098861;28;20573;-63
2022/10/16 00:12:17;;;;;;;4.00;2.07;;;;;;;;;;5098708;28;20214;-63
2022/10/16 00:14:45;;;;;;;3.27;2.03;;;;;;;;;;5098735;28;20722;-62
2022/10/16 00:17:13;;;;;;;5.63;2.17;;;;;;;;;;5098472;28;20209;-62
2022/10/16 00:19:41;;;;;;;3.70;2.10;;;;;;;;;;5098755;28;20212;-62
2022/10/16 00:22:09;;;;;;;3.13;1.93;;;;;;;;;;5098491;28;20690;-63
2022/10/16 00:24:37;;;;;;;4.90;2.37;;;;;;;;;;5098523;28;20237;-63
2022/10/16 00:27:06;;;;;;;3.80;1.87;;;;;;;;;;5098575;28;20212;-62
2022/10/16 00:29:34;;;;;;;2.20;2.00;;;;;;;;;;5098589;28;20210;-64
2022/10/16 00:32:02;;;;;;;4.10;1.90;;;;;;;;;;5098059;28;20669;-62
2022/10/16 00:34:30;;;;;;;3.07;1.93;;;;;;;;;;5097272;28;20692;-62
2022/10/16 00:36:58;;;;;;;3.17;2.60;;;;;;;;;;5098447;28;20212;-63
2022/10/16 00:39:26;;;;;;;8.67;2.80;;;;;;;;;;5098247;28;20216;-63
2022/10/16 00:41:54;;;;;;;4.97;2.03;;;;;;;;;;5097950;28;20685;-63
2022/10/16 00:44:40;;;;;;;4.77;2.13;;;;;;;;;;5098123;28;20230;-62
2022/10/16 00:47:11;;;;;;;2.93;2.33;;;;;;;;;;5097852;28;20212;-63
2022/10/16 00:49:39;;;;;;;3.43;2.00;;;;;;;;;;5098090;28;20221;-63
2022/10/16 00:52:07;;;;;;;4.33;1.80;;;;;;;;;;5098464;28;20210;-63
2022/10/16 00:54:34;;;;;;;1.90;1.67;;;;;;;;;;5097878;28;20248;-63
2022/10/16 00:57:05;;;;;;;3.77;2.13;;;;;;;;;;5097940;28;20220;-63
2022/10/16 00:59:34;;;;;;;2.47;2.00;;;;;;;;;;5098251;28;20209;-63
2022/10/16 01:02:03;;;;;;;5.07;2.13;;;;;;;;;;5097555;28;20574;-63
2022/10/16 01:04:34;;;;;;;2.67;2.20;;;;;;;;;;5097780;28;20233;-63
2022/10/16 01:07:08;;;;;;;9.07;2.73;;;;;;;;;;5098157;28;20205;-63
2022/10/16 01:09:38;;;;;;;4.80;2.00;;;;;;;;;;5098098;28;20216;-63
2022/10/16 01:12:09;;;;;;;3.47;2.23;;;;;;;;;;5097896;28;20205;-63
2022/10/16 01:14:41;;;;;;;4.50;2.13;;;;;;;;;;5098004;28;20221;-63
2022/10/16 01:17:11;;;;;;;2.30;1.73;;;;;;;;;;5097303;28;20219;-63
2022/10/16 01:19:49;;;;;;;4.03;2.43;;;;;;;;;;5097896;28;20299;-63
2022/10/16 01:22:17;;;;;;;2.30;2.10;;;;;;;;;;5097834;28;20205;-63
2022/10/16 01:24:47;;;;;;;4.33;1.93;;;;;;;;;;5097615;28;20222;-63
2022/10/16 01:27:23;;;;;;;3.33;2.00;;;;;;;;;;5097784;28;20208;-63
2022/10/16 01:29:54;;;;;;;1.93;1.77;;;;;;;;;;5097923;28;20249;-63
2022/10/16 01:32:26;;;;;;;2.57;1.87;;;;;;;;;;5097673;28;20205;-63
2022/10/16 01:34:56;;;;;;;3.20;1.87;;;;;;;;;;5097578;28;20228;-62
2022/10/16 01:37:30;;;;;;;2.10;2.00;;;;;;;;;;5097768;28;20216;-62
2022/10/16 01:40:00;;;;;;;3.77;1.80;;;;;;;;;;5097475;28;20211;-62
2022/10/16 01:42:31;;;;;;;2.13;1.93;;;;;;;;;;5097255;28;20672;-62
2022/10/16 01:45:00;;;;;;;5.33;1.80;;;;;;;;;;5097739;28;20236;-64
2022/10/16 01:47:28;;;;;;;1.80;1.70;;;;;;;;;;5101400;28;20212;-63
2022/10/16 01:49:57;;;;;;;3.30;1.73;;;;;;;;;;5101456;28;20213;-62
2022/10/16 01:52:27;;;;;;;6.80;2.00;;;;;;;;;;5101434;28;20213;-62
2022/10/16 01:54:57;;;;;;;1.90;1.80;;;;;;;;;;5101537;28;20242;-63
2022/10/16 01:57:26;;;;;;;3.97;1.87;;;;;;;;;;5101414;28;20209;-63
2022/10/16 01:59:57;;;;;;;2.40;2.00;;;;;;;;;;5101322;28;20586;-63
2022/10/16 02:02:27;;;;;;;3.03;1.83;;;;;;;;;;5101283;28;20209;-62
2022/10/16 02:04:59;;;;;;;2.57;2.00;;;;;;;;;;5101205;28;20222;-62
2022/10/16 02:07:27;;;;;;;2.73;1.90;;;;;;;;;;5101308;28;20206;-62
2022/10/16 02:09:55;;;;;;;1.97;1.50;;;;;;;;;;5101164;28;20601;-62
2022/10/16 02:12:26;;;;;;;4.53;1.90;;;;;;;;;;5100828;28;20205;-62
2022/10/16 02:14:56;;;;;;;2.77;1.97;;;;;;;;;;5101098;28;20222;-62
2022/10/16 02:17:25;;;;;;;2.37;1.70;;;;;;;;;;5100898;28;20201;-62
2022/10/16 02:19:55;;;;;;;3.10;1.67;;;;;;;;;;5101270;28;20202;-63
2022/10/16 02:22:25;;;;;;;2.93;1.53;;;;;;;;;;5101190;28;20201;-63
2022/10/16 02:24:55;;;;;;;4.33;1.50;;;;;;;;;;5100892;28;20221;-62
2022/10/16 02:27:25;;;;;;;3.93;1.90;;;;;;;;;;5100940;28;20230;-63
2022/10/16 02:29:58;;;;;;;3.10;1.90;;;;;;;;;;5100677;28;20664;-63
2022/10/16 02:32:31;;;;;;;3.40;1.70;;;;;;;;;;5100782;28;20205;-62
2022/10/16 02:34:59;;;;;;;2.93;1.97;;;;;;;;;;5101010;28;20234;-62
2022/10/16 02:37:28;;;;;;;1.97;1.80;;;;;;;;;;5100640;28;20562;-63
2022/10/16 02:39:56;;;;;;;3.30;2.00;;;;;;;;;;5100689;28;20209;-62
2022/10/16 02:42:28;;;;;;;3.13;1.70;;;;;;;;;;5100692;28;20201;-63
2022/10/16 02:44:56;;;;;;;1.70;1.30;;;;;;;;;;5100580;28;20237;-63
2022/10/16 02:47:24;;;;;;;1.60;1.50;;;;;;;;;;5100121;28;20233;-62
2022/10/16 02:49:54;;;;;;;2.10;1.63;;;;;;;;;;5100541;28;20212;-62
2022/10/16 02:52:22;;;;;;;2.73;2.00;;;;;;;;;;5100290;28;20210;-62
2022/10/16 02:54:51;;;;;;;2.27;1.90;;;;;;;;;;5100390;28;20264;-62
2022/10/16 02:57:19;;;;;;;5.63;1.77;;;;;;;;;;5098953;28;20204;-62
2022/10/16 02:59:47;;;;;;;4.13;1.93;;;;;;;;;;5099204;28;20204;-63
2022/10/16 03:02:15;;;;;;;4.73;1.50;;;;;;;;;;5100006;28;20213;-62
2022/10/16 03:04:43;;;;;;;2.50;1.70;;;;;;;;;;5100170;28;20230;-62
2022/10/16 03:07:12;;;;;;;4.47;1.90;;;;;;;;;;5100014;28;20561;-63
2022/10/16 03:09:41;;;;;;;2.10;1.93;;;;;;;;;;5100180;28;20296;-63
2022/10/16 03:12:08;;;;;;;4.43;2.10;;;;;;;;;;5099793;28;20213;-64
2022/10/16 03:14:36;;;;;;;2.77;2.07;;;;;;;;;;5098721;28;20232;-62
2022/10/16 03:17:04;;;;;;;5.17;2.30;;;;;;;;;;5099650;28;20200;-62
2022/10/16 03:19:32;;;;;;;2.17;2.00;;;;;;;;;;5099685;28;20205;-62
2022/10/16 03:22:00;;;;;;;3.40;2.10;;;;;;;;;;5099606;28;20258;-63
2022/10/16 03:24:29;;;;;;;2.20;1.83;;;;;;;;;;5099417;28;20588;-62
2022/10/16 03:26:57;;;;;;;3.87;2.37;;;;;;;;;;5099330;28;20225;-63
2022/10/16 03:29:25;;;;;;;2.57;2.17;;;;;;;;;;5099796;28;20206;-62
2022/10/16 03:31:53;;;;;;;2.40;1.87;;;;;;;;;;5098616;28;20216;-63
2022/10/16 03:34:21;;;;;;;3.63;2.47;;;;;;;;;;5098043;28;20743;-62
2022/10/16 03:36:49;;;;;;;5.53;2.10;;;;;;;;;;5096299;28;20193;-64
2022/10/16 03:39:17;;;;;;;3.20;2.53;;;;;;;;;;5095362;28;20212;-62
2022/10/16 03:41:47;;;;;;;3.70;2.50;;;;;;;;;;5095344;28;20236;-64
2022/10/16 03:44:15;;;;;;;2.73;2.23;;;;;;;;;;5096089;28;20225;-64
2022/10/16 03:46:43;;;;;;;3.80;2.20;;;;;;;;;;5097236;28;20225;-63
2022/10/16 03:49:11;;;;;;;2.70;2.30;;;;;;;;;;5095198;28;20253;-63
2022/10/16 03:51:39;;;;;;;4.83;2.60;;;;;;;;;;5095042;28;20198;-62
2022/10/16 03:54:07;;;;;;;6.27;3.00;;;;;;;;;;5089514;28;20237;-62
2022/10/16 03:56:35;;;;;;;3.50;2.50;;;;;;;;;;5097874;28;20194;-63
2022/10/16 03:59:05;;;;;;;3.87;2.73;;;;;;;;;;5094745;28;20204;-63
2022/10/16 04:01:33;;;;;;;2.67;2.47;;;;;;;;;;5094436;28;20740;-62
2022/10/16 04:04:01;;;;;;;5.30;3.00;;;;;;;;;;5094849;28;20260;-62
2022/10/16 04:06:29;;;;;;;6.30;2.67;;;;;;;;;;5085901;28;20229;-63
2022/10/16 04:08:57;;;;;;;3.53;2.70;;;;;;;;;;5097862;28;20209;-62
2022/10/16 04:11:24;;;;;;;3.00;2.70;;;;;;;;;;5098573;28;20220;-62
2022/10/16 04:13:52;;;;;;;3.43;3.10;;;;;;;;;;5098640;28;20229;-62
2022/10/16 04:16:22;;;;;;;3.77;2.53;;;;;;;;;;5098452;28;20216;-62
2022/10/16 04:18:50;;;;;;;3.07;2.77;;;;;;;;;;5094903;28;20661;-64
2022/10/16 04:21:17;;;;;;;3.27;2.97;;;;;;;;;;5098378;28;20206;-62
2022/10/16 04:23:45;;;;;;;3.47;2.80;;;;;;;;;;5098501;28;20225;-64
2022/10/16 04:26:13;;;;;;;6.63;2.77;;;;;;;;;;5098271;28;20209;-62
2022/10/16 04:28:41;;;;;;;4.43;3.20;;;;;;;;;;5098510;28;20208;-63
2022/10/16 04:31:09;;;;;;;4.17;3.17;;;;;;;;;;5098058;28;20201;-62
2022/10/16 04:33:38;;;;;;;5.93;3.70;;;;;;;;;;5098362;28;20226;-63
2022/10/16 04:36:06;;;;;;;6.40;3.13;;;;;;;;;;5098253;28;20200;-62
2022/10/16 04:38:34;;;;;;;4.10;3.03;;;;;;;;;;5098397;28;20201;-63
2022/10/16 04:41:02;;;;;;;4.63;3.27;;;;;;;;;;5098001;28;20212;-61
2022/10/16 04:43:30;;;;;;;6.03;3.03;;;;;;;;;;5097981;28;20225;-62
2022/10/16 04:45:58;;;;;;;4.40;3.40;;;;;;;;;;5097739;28;20205;-62
2022/10/16 04:48:26;;;;;;;7.27;3.50;;;;;;;;;;5097940;28;20226;-61
2022/10/16 04:50:55;;;;;;;6.70;3.37;;;;;;;;;;5098167;28;20216;-62
2022/10/16 04:53:23;;;;;;;5.40;3.60;;;;;;;;;;5098068;28;20700;-63
2022/10/16 04:55:51;;;;;;;7.70;3.83;;;;;;;;;;5098044;28;20201;-62
2022/10/16 04:58:19;;;;;;;4.27;3.63;;;;;;;;;;5098289;28;20208;-62
2022/10/16 05:00:47;;;;;;;3.77;3.47;;;;;;;;;;5097619;28;20567;-62
2022/10/16 05:03:15;;;;;;;6.37;3.77;;;;;;;;;;5098039;28;20216;-63
2022/10/16 05:05:44;;;;;;;4.17;3.67;;;;;;;;;;5097856;28;20205;-63
2022/10/16 05:08:13;;;;;;;3.37;2.90;;;;;;;;;;5098167;28;20221;-62
2022/10/16 05:10:42;;;;;;;5.90;3.60;;;;;;;;;;5098180;28;20205;-63
2022/10/16 05:13:10;;;;;;;4.23;3.53;;;;;;;;;;5097835;28;20216;-62
2022/10/16 05:15:38;;;;;;;6.87;3.63;;;;;;;;;;5096637;28;20209;-62
2022/10/16 05:18:06;;;;;;;4.00;3.60;;;;;;;;;;5098192;28;20209;-62
2022/10/16 05:20:34;;;;;;;3.87;3.50;;;;;;;;;;5097165;28;20580;-62
2022/10/16 05:23:01;;;;;;;5.10;3.83;;;;;;;;;;5097963;28;20210;-64
2022/10/16 05:25:31;;;;;;;3.80;3.40;;;;;;;;;;5098087;28;20239;-63
2022/10/16 05:27:59;;;;;;;6.07;3.57;;;;;;;;;;5097736;28;20221;-62
2022/10/16 05:30:27;;;;;;;5.47;3.93;;;;;;;;;;5097374;28;20209;-63
2022/10/16 05:32:56;;;;;;;3.37;3.13;;;;;;;;;;5097831;28;20220;-63
2022/10/16 05:35:24;;;;;;;7.83;3.47;;;;;;;;;;5097872;28;20201;-62
2022/10/16 05:37:51;;;;;;;4.00;3.20;;;;;;;;;;5097496;28;20201;-62
2022/10/16 05:40:19;;;;;;;6.60;3.90;;;;;;;;;;5097423;28;20399;-62
2022/10/16 05:42:49;;;;;;;6.27;3.50;;;;;;;;;;5094676;28;21609;-63
2022/10/16 05:45:17;;;;;;;4.87;3.60;;;;;;;;;;5094635;28;20222;-63
2022/10/16 05:47:45;;;;;;;4.90;3.30;;;;;;;;;;5098400;28;20263;-64
2022/10/16 05:50:13;;;;;;;4.07;3.27;;;;;;;;;;5097702;28;20212;-64
2022/10/16 05:52:41;;;;;;;5.07;3.50;;;;;;;;;;5097247;28;20282;-63
2022/10/16 05:55:09;;;;;;;7.17;3.07;;;;;;;;;;5097603;28;20237;-63
2022/10/16 05:57:37;;;;;;;5.03;3.40;;;;;;;;;;5097423;28;20220;-63
2022/10/16 06:00:07;;;;;;;3.23;2.90;;;;;;;;;;5097058;28;20200;-63
2022/10/16 06:02:35;;;;;;;3.33;3.03;;;;;;;;;;5097318;28;20205;-61
2022/10/16 06:05:03;;;;;;;5.27;3.00;;;;;;;;;;5097295;28;20572;-59
2022/10/16 06:07:34;;;;;;;3.87;3.33;;;;;;;;;;5097449;28;20230;-60
2022/10/16 06:10:02;;;;;;;4.93;3.17;;;;;;;;;;5097362;28;20216;-60
2022/10/16 06:12:30;;;;;;;4.37;3.23;;;;;;;;;;5097542;28;20210;-61
2022/10/16 06:14:58;;;;;;;4.90;3.63;;;;;;;;;;5096860;28;20230;-61
2022/10/16 06:17:28;;;;;;;5.50;3.87;;;;;;;;;;5097180;28;20201;-61
2022/10/16 06:19:56;;;;;;;6.73;3.50;;;;;;;;;;5097392;28;20201;-61
2022/10/16 06:22:24;;;;;;;6.57;5.30;;;;;;;;;;5094882;28;20201;-61
2022/10/16 06:24:52;;;;;;;4.10;3.70;;;;;;;;;;5094781;28;20240;-61
2022/10/16 06:27:19;;;;;;;11.03;5.63;;;;;;;;;;5094906;28;20586;-61
2022/10/16 06:29:47;;;;;;;9.10;6.57;;;;;;;;;;5095636;28;20206;-61
2022/10/16 06:32:15;;;;;;;8.57;5.50;;;;;;;;;;5095265;28;20209;-61
2022/10/16 06:34:45;;;;;;;8.57;6.60;;;;;;;;;;5098714;28;20717;-60
2022/10/16 06:37:13;;;;;;;7.73;5.50;;;;;;;;;;5098275;28;20301;-60
2022/10/16 06:39:41;;;;;;;9.37;4.10;;;;;;;;;;5100078;28;20200;-61
2022/10/16 06:42:09;;;;;;;10.77;7.40;;;;;;;;;;5099784;28;20652;-62
2022/10/16 06:44:37;;;;;;;5.03;4.47;;;;;;;;;;5096507;28;20221;-62
2022/10/16 06:47:05;;;;;;;4.23;3.83;;;;;;;;;;5095977;28;20197;-63
2022/10/16 06:49:33;;;;;;;8.37;4.93;;;;;;;;;;5095862;28;20213;-63
2022/10/16 06:52:03;;;;;;;3.70;3.40;;;;;;;;;;5098606;28;20201;-62
2022/10/16 06:54:31;;;;;;;5.03;4.07;;;;;;;;;;5098994;28;20578;-63
2022/10/16 06:57:09;;;;;;;12.20;7.37;;;;;;;;;;5100111;28;20207;-61
2022/10/16 06:59:36;;;;;;;5.40;4.47;;;;;;;;;;5100384;28;20209;-61
2022/10/16 07:02:05;;;;;;;4.33;3.20;;;;;;;;;;5099501;28;20193;-61
2022/10/16 07:04:33;;;;;;;3.53;3.23;;;;;;;;;;5096841;28;20217;-61
2022/10/16 07:07:03;;;;;;;6.43;3.17;;;;;;;;;;5100559;28;20205;-61
2022/10/16 07:09:36;;;;;;;3.70;2.80;;;;;;;;;;5096629;28;20304;-61
2022/10/16 07:12:04;;;;;;;5.30;3.40;;;;;;;;;;5098567;28;20198;-60
2022/10/16 07:14:32;;;;;;;5.17;3.03;;;;;;;;;;5101877;28;20588;-60
2022/10/16 07:17:00;;;;;;;3.57;2.30;;;;;;;;;;5096925;28;20202;-62
2022/10/16 07:19:28;;;;;;;3.40;2.97;;;;;;;;;;5095074;28;20194;-60
2022/10/16 07:22:01;;;;;;;4.13;2.73;;;;;;;;;;5096989;28;20198;-60
2022/10/16 07:24:30;;;;;;;4.60;3.80;;;;;;;;;;5094765;28;20286;-61
2022/10/16 07:26:58;;;;;;;5.20;4.50;;;;;;;;;;5099585;28;20206;-60
2022/10/16 07:29:26;;;;;;;9.67;6.13;;;;;;;;;;5099345;28;20226;-58
2022/10/16 07:31:54;;;;;;;4.87;3.43;;;;;;;;;;5099333;28;20201;-59
2022/10/16 07:34:22;;;;;;;6.97;3.87;;;;;;;;;;5099177;28;20225;-62
2022/10/16 07:36:50;;;;;;;5.03;2.57;;;;;;;;;;5099612;28;20209;-64
2022/10/16 07:39:19;;;;;;;3.97;2.80;;;;;;;;;;5099448;28;20214;-63
2022/10/16 07:41:48;;;;;;;6.73;2.53;;;;;;;;;;5099301;28;20217;-63
2022/10/16 07:44:16;;;;;;;4.53;2.43;;;;;;;;;;5098456;28;20728;-62
2022/10/16 07:46:44;;;;;;;6.43;2.70;;;;;;;;;;5098950;28;20209;-62
2022/10/16 07:49:12;;;;;;;6.30;2.60;;;;;;;;;;5095872;28;20313;-62
2022/10/16 07:51:40;;;;;;;3.20;2.47;;;;;;;;;;5094712;28;20205;-62
2022/10/16 07:54:09;;;;;;;2.37;2.17;;;;;;;;;;5097921;28;20236;-63
2022/10/16 07:56:37;;;;;;;5.00;2.97;;;;;;;;;;5098836;28;20574;-63
2022/10/16 07:59:11;;;;;;;3.47;2.47;;;;;;;;;;5098858;28;20205;-62
2022/10/16 08:01:39;;;;;;;2.90;2.60;;;;;;;;;;5099105;28;20217;-63
2022/10/16 08:04:07;;;;;;;8.47;2.30;;;;;;;;;;5098761;28;20221;-63
2022/10/16 08:06:36;;;;;;;3.07;2.43;;;;;;;;;;5098947;28;20213;-63
2022/10/16 08:09:05;;;;;;;3.23;2.40;;;;;;;;;;5098806;28;20846;-63
2022/10/16 08:11:33;;;;;;;2.57;2.37;;;;;;;;;;5098930;28;20212;-63
2022/10/16 08:14:01;;;;;;;2.60;2.40;;;;;;;;;;5098689;28;20237;-62
2022/10/16 08:16:30;;;;;;;4.43;2.43;;;;;;;;;;5098183;28;20741;-62
2022/10/16 08:18:58;;;;;;;2.73;2.23;;;;;;;;;;5098735;28;20210;-62
2022/10/16 08:21:26;;;;;;;5.60;2.70;;;;;;;;;;5097976;28;20198;-62
2022/10/16 08:23:54;;;;;;;2.60;2.40;;;;;;;;;;5095048;28;20243;-62
2022/10/16 08:26:25;;;;;;;2.40;2.20;;;;;;;;;;5095352;28;20254;-63
2022/10/16 08:28:53;;;;;;;4.10;2.53;;;;;;;;;;5095859;28;20222;-63
2022/10/16 08:31:22;;;;;;;2.70;2.10;;;;;;;;;;5097995;28;20209;-62
2022/10/16 08:33:52;;;;;;;3.17;2.87;;;;;;;;;;5094954;28;20556;-62
2022/10/16 08:36:20;;;;;;;6.27;2.20;;;;;;;;;;5097662;28;20296;-62
2022/10/16 08:38:49;;;;;;;3.60;2.67;;;;;;;;;;5095019;28;20203;-61
2022/10/16 08:41:35;;;;;;;6.50;2.30;;;;;;;;;;5096991;28;20209;-62
2022/10/16 08:44:15;;;;;;;3.47;2.30;;;;;;;;;;5094685;28;20229;-62
2022/10/16 08:46:47;;;;;;;4.93;3.07;;;;;;;;;;5094415;28;20201;-62
2022/10/16 08:49:19;;;;;;;2.60;2.40;;;;;;;;;;5096805;28;20248;-62
2022/10/16 08:51:49;;;;;;;3.90;2.80;;;;;;;;;;5092092;28;20231;-63
2022/10/16 08:54:22;;;;;;;3.00;2.73;;;;;;;;;;5093908;28;20242;-62
2022/10/16 08:56:50;;;;;;;4.73;2.53;;;;;;;;;;5092618;28;20201;-61
2022/10/16 08:59:19;;;;;;;2.67;2.47;;;;;;;;;;5095880;28;20210;-64
2022/10/16 09:01:49;;;;;;;5.23;2.70;;;;;;;;;;5094830;28;20289;-63
2022/10/16 09:04:32;;;;;;;4.33;2.60;;;;;;;;;;5093749;28;20214;-61
2022/10/16 09:07:01;;;;;;;3.30;3.00;;;;;;;;;;5097622;28;20232;-62
2022/10/16 09:09:41;;;;;;;3.50;2.53;;;;;;;;;;5097860;28;20232;-63
2022/10/16 09:12:13;;;;;;;4.87;2.90;;;;;;;;;;5097467;28;20680;-61
2022/10/16 09:14:46;;;;;;;2.83;2.53;;;;;;;;;;5097884;28;20234;-63
2022/10/16 09:17:35;;;;;;;8.00;3.00;;;;;;;;;;5097676;28;20228;-61
2022/10/16 09:20:15;;;;;;;6.90;2.80;;;;;;;;;;5097700;28;20205;-61
2022/10/16 09:22:43;;;;;;;3.27;2.30;;;;;;;;;;5097849;28;20213;-63
2022/10/16 09:25:12;;;;;;;5.60;3.10;;;;;;;;;;5097481;28;20224;-62
2022/10/16 09:27:40;;;;;;;7.03;2.80;;;;;;;;;;5097450;28;20573;-61
2022/10/16 09:30:12;;;;;;;2.87;2.67;;;;;;;;;;5097842;28;20227;-63
2022/10/16 09:32:41;;;;;;;3.17;2.90;;;;;;;;;;5097738;28;20206;-62
2022/10/16 09:35:14;;;;;;;5.10;2.83;;;;;;;;;;5097672;28;20231;-63
2022/10/16 09:37:43;;;;;;;4.13;2.70;;;;;;;;;;5097592;28;20215;-62
2022/10/16 09:40:13;;;;;;;3.13;2.30;;;;;;;;;;5097697;28;20207;-63
2022/10/16 09:42:41;;;;;;;4.33;2.70;;;;;;;;;;5092925;28;20203;-62
2022/10/16 09:45:21;;;;;;;4.70;2.43;;;;;;;;;;5097209;28;20310;-63
2022/10/16 09:47:49;;;;;;;3.43;2.60;;;;;;;;;;5097669;28;20215;-63
2022/10/16 09:50:26;;;;;;;6.60;2.67;;;;;;;;;;5097398;28;20323;-63
2022/10/16 09:53:07;;;;;;;4.43;2.63;;;;;;;;;;5097316;28;20244;-62
2022/10/16 09:55:35;;;;;;;8.57;2.53;;;;;;;;;;5097261;28;20569;-63
2022/10/16 09:58:03;;;;;;;3.87;2.30;;;;;;;;;;5097476;28;20238;-63
2022/10/16 10:00:31;;;;;;;4.43;2.53;;;;;;;;;;5096927;28;20202;-62
2022/10/16 10:02:59;;;;;;;4.50;2.73;;;;;;;;;;5097450;28;20218;-63
2022/10/16 10:05:29;;;;;;;2.73;2.37;;;;;;;;;;5097415;28;20231;-62
2022/10/16 10:07:59;;;;;;;2.83;1.97;;;;;;;;;;5100722;28;20216;-63
2022/10/16 10:10:28;;;;;;;3.80;2.20;;;;;;;;;;5101112;28;20238;-63
2022/10/16 10:12:56;;;;;;;3.63;2.60;;;;;;;;;;5101260;28;20207;-62
2022/10/16 10:15:26;;;;;;;3.73;2.10;;;;;;;;;;5100786;28;20236;-63
2022/10/16 10:17:55;;;;;;;2.70;2.20;;;;;;;;;;5100909;28;20205;-62
2022/10/16 10:20:25;;;;;;;4.17;2.53;;;;;;;;;;5100948;28;20201;-62
2022/10/16 10:22:55;;;;;;;4.80;2.17;;;;;;;;;;5101537;28;20216;-63
2022/10/16 10:25:38;;;;;;;3.63;2.50;;;;;;;;;;5102235;28;20206;-63
2022/10/16 10:28:19;;;;;;;2.57;2.30;;;;;;;;;;5099251;28;20217;-62
2022/10/16 10:30:51;;;;;;;3.10;2.00;;;;;;;;;;5100331;28;20294;-63
2022/10/16 10:33:21;;;;;;;4.17;1.93;;;;;;;;;;5100769;28;20241;-63
2022/10/16 10:35:53;;;;;;;4.17;1.90;;;;;;;;;;5100986;28;20214;-63
2022/10/16 10:38:28;;;;;;;6.43;2.50;;;;;;;;;;5100769;28;20216;-61
2022/10/16 10:41:00;;;;;;;3.90;1.83;;;;;;;;;;5100641;28;20201;-61
2022/10/16 10:43:39;;;;;;;2.23;2.03;;;;;;;;;;5101135;28;20372;-61
2022/10/16 10:46:10;;;;;;;4.33;2.20;;;;;;;;;;5100315;28;20211;-61
2022/10/16 10:48:59;;;;;;;2.10;1.90;;;;;;;;;;5100254;28;20215;-62
2022/10/16 10:51:31;;;;;;;3.20;2.30;;;;;;;;;;5095729;28;20240;-62
2022/10/16 10:54:07;;;;;;;3.97;2.87;;;;;;;;;;5100287;28;20316;-62
2022/10/16 10:56:44;;;;;;;6.33;2.17;;;;;;;;;;5100367;28;20209;-62
2022/10/16 10:59:29;;;;;;;3.77;2.37;;;;;;;;;;5100496;28;20206;-61
2022/10/16 11:02:00;;;;;;;2.40;1.90;;;;;;;;;;5090105;28;20213;-61
2022/10/16 11:04:39;;;;;;;2.50;2.10;;;;;;;;;;5100122;28;20315;-61
2022/10/16 11:07:11;;;;;;;4.07;2.00;;;;;;;;;;5099937;28;20657;-61
2022/10/16 11:09:43;;;;;;;4.80;2.13;;;;;;;;;;5100013;28;20586;-61
2022/10/16 11:12:13;;;;;;;2.83;2.13;;;;;;;;;;5099669;28;20235;-61
2022/10/16 11:14:43;;;;;;;3.67;2.23;;;;;;;;;;5099786;28;20230;-61
2022/10/16 11:17:13;;;;;;;3.00;2.00;;;;;;;;;;5099038;28;20209;-62
2022/10/16 11:19:45;;;;;;;2.53;2.03;;;;;;;;;;5099153;28;20207;-62
2022/10/16 11:22:15;;;;;;;4.13;2.30;;;;;;;;;;5099684;28;20655;-61
2022/10/16 11:24:46;;;;;;;4.60;2.33;;;;;;;;;;5099635;28;20232;-62
2022/10/16 11:27:16;;;;;;;5.13;2.40;;;;;;;;;;5099651;28;20214;-61
2022/10/16 11:29:47;;;;;;;3.37;2.40;;;;;;;;;;5099505;28;20227;-62
2022/10/16 11:32:20;;;;;;;2.47;2.27;;;;;;;;;;5099600;28;20223;-62
2022/10/16 11:34:50;;;;;;;2.40;2.17;;;;;;;;;;5099027;28;20694;-61
2022/10/16 11:37:20;;;;;;;2.40;2.20;;;;;;;;;;5099497;28;20627;-61
2022/10/16 11:39:50;;;;;;;4.90;2.53;;;;;;;;;;5099946;28;20571;-61
2022/10/16 11:42:21;;;;;;;5.80;2.53;;;;;;;;;;5099606;28;20250;-62
2022/10/16 11:44:53;;;;;;;4.40;2.50;;;;;;;;;;5099311;28;20230;-61
2022/10/16 11:47:26;;;;;;;3.93;2.47;;;;;;;;;;5099355;28;20210;-61
2022/10/16 11:50:20;;;;;;;3.83;2.53;;;;;;;;;;5098848;28;20200;-61
2022/10/16 11:52:52;;;;;;;4.57;2.60;;;;;;;;;;5099075;28;20599;-61
2022/10/16 11:55:23;;;;;;;3.10;2.80;;;;;;;;;;5098595;28;20591;-60
2022/10/16 11:57:53;;;;;;;4.83;2.33;;;;;;;;;;5099244;28;20222;-61
2022/10/16 12:00:23;;;;;;;5.57;3.47;;;;;;;;;;5098641;28;20547;-61
2022/10/16 12:02:55;;;;;;;7.63;2.47;;;;;;;;;;5099034;28;20204;-62
2022/10/16 12:05:26;;;;;;;4.20;2.13;;;;;;;;;;5099249;28;20216;-61
2022/10/16 12:07:58;;;;;;;5.60;2.47;;;;;;;;;;5098585;28;20300;-62
2022/10/16 12:10:31;;;;;;;5.40;2.47;;;;;;;;;;5098247;28;20217;-63
2022/10/16 12:12:59;;;;;;;3.07;2.27;;;;;;;;;;5098405;28;20238;-64
2022/10/16 12:15:28;;;;;;;3.93;2.30;;;;;;;;;;5098019;28;20210;-63
2022/10/16 12:18:23;;;;;;;4.63;2.40;;;;;;;;;;5098504;28;20252;-63
2022/10/16 12:20:58;;;;;;;2.80;2.20;;;;;;;;;;5098573;28;20203;-63
2022/10/16 12:23:26;;;;;;;4.30;2.97;;;;;;;;;;5098136;28;20603;-64
2022/10/16 12:25:57;;;;;;;4.77;2.37;;;;;;;;;;5098155;28;20220;-64
2022/10/16 12:28:28;;;;;;;4.07;2.30;;;;;;;;;;5098618;28;20287;-63
2022/10/16 12:30:58;;;;;;;2.80;2.50;;;;;;;;;;5097886;28;20629;-63
2022/10/16 12:33:27;;;;;;;2.63;2.10;;;;;;;;;;5098164;28;20228;-64
2022/10/16 12:35:55;;;;;;;3.67;2.40;;;;;;;;;;5098614;28;20217;-64
2022/10/16 12:38:26;;;;;;;2.87;1.97;;;;;;;;;;5098290;28;20239;-63
2022/10/16 12:41:00;;;;;;;3.00;2.30;;;;;;;;;;5098217;28;20218;-63
2022/10/16 12:43:36;;;;;;;2.73;1.97;;;;;;;;;;5098242;28;20239;-64
2022/10/16 12:46:05;;;;;;;2.60;2.30;;;;;;;;;;5097979;28;20993;-64
2022/10/16 12:48:34;;;;;;;2.67;2.43;;;;;;;;;;5098111;28;20610;-63
2022/10/16 12:51:25;;;;;;;3.03;2.37;;;;;;;;;;5098306;28;20228;-63
2022/10/16 12:53:59;;;;;;;2.17;1.80;;;;;;;;;;5098039;28;20264;-63
2022/10/16 12:56:35;;;;;;;3.67;2.30;;;;;;;;;;5098222;28;20206;-63
2022/10/16 12:59:09;;;;;;;4.67;2.20;;;;;;;;;;5098321;28;20288;-63
2022/10/16 13:01:42;;;;;;;4.87;2.10;;;;;;;;;;5097871;28;20574;-63
2022/10/16 13:04:23;;;;;;;2.73;2.30;;;;;;;;;;5098137;28;20234;-63
2022/10/16 13:06:54;;;;;;;3.47;2.20;;;;;;;;;;5098045;28;20211;-63
2022/10/16 13:09:30;;;;;;;2.67;1.93;;;;;;;;;;5097873;28;20211;-63
2022/10/16 13:12:08;;;;;;;6.37;2.50;;;;;;;;;;5097746;28;20227;-63
2022/10/16 13:14:54;;;;;;;3.23;2.03;;;;;;;;;;5098044;28;20233;-64
2022/10/16 13:17:26;;;;;;;4.87;2.10;;;;;;;;;;5097964;28;20203;-63
2022/10/16 13:19:58;;;;;;;3.30;2.57;;;;;;;;;;5097741;28;20375;-64
2022/10/16 13:22:30;;;;;;;3.27;2.30;;;;;;;;;;5097686;28;20654;-64
2022/10/16 13:25:04;;;;;;;3.10;2.27;;;;;;;;;;5097453;28;20225;-63
2022/10/16 13:27:40;;;;;;;2.37;2.13;;;;;;;;;;5097698;28;20207;-64
2022/10/16 13:30:13;;;;;;;5.47;2.50;;;;;;;;;;5097672;28;20208;-64
2022/10/16 13:32:41;;;;;;;4.87;2.30;;;;;;;;;;5097795;28;20239;-63
2022/10/16 13:35:19;;;;;;;3.03;2.30;;;;;;;;;;5096147;28;20223;-63
2022/10/16 13:37:47;;;;;;;5.83;2.50;;;;;;;;;;5091334;28;20211;-63
2022/10/16 13:40:19;;;;;;;2.80;2.17;;;;;;;;;;5096602;28;20204;-63
2022/10/16 13:42:49;;;;;;;5.23;2.40;;;;;;;;;;5100628;28;20202;-63
2022/10/16 13:45:20;;;;;;;3.10;2.33;;;;;;;;;;5098581;28;20224;-64
2022/10/16 13:47:48;;;;;;;3.20;2.23;;;;;;;;;;5098682;28;20211;-64
2022/10/16 13:50:17;;;;;;;5.03;2.30;;;;;;;;;;5096011;28;20211;-62
2022/10/16 13:52:45;;;;;;;2.30;2.10;;;;;;;;;;5101191;28;20688;-62
2022/10/16 13:55:13;;;;;;;2.93;2.03;;;;;;;;;;5100117;28;20229;-62
2022/10/16 13:57:42;;;;;;;5.97;2.70;;;;;;;;;;5097515;28;20211;-61
2022/10/16 14:00:22;;;;;;;3.50;2.00;;;;;;;;;;5094604;28;20202;-61
2022/10/16 14:02:56;;;;;;;3.70;2.50;;;;;;;;;;5097537;28;20196;-62
2022/10/16 14:05:24;;;;;;;3.67;2.07;;;;;;;;;;5097068;28;20204;-61
2022/10/16 14:07:52;;;;;;;3.63;2.40;;;;;;;;;;5100401;28;20203;-62
2022/10/16 14:10:22;;;;;;;3.20;2.17;;;;;;;;;;5101347;28;20212;-62
2022/10/16 14:12:55;;;;;;;2.83;2.50;;;;;;;;;;5101310;28;20232;-62
2022/10/16 14:15:25;;;;;;;2.90;2.60;;;;;;;;;;5097102;28;20570;-61
2022/10/16 14:17:53;;;;;;;3.40;2.30;;;;;;;;;;5101176;28;20577;-64
2022/10/16 14:20:25;;;;;;;3.63;2.40;;;;;;;;;;5100812;28;20586;-63
2022/10/16 14:22:59;;;;;;;3.47;2.20;;;;;;;;;;5100861;28;20200;-63
2022/10/16 14:25:28;;;;;;;3.07;2.40;;;;;;;;;;5087518;28;20574;-63
2022/10/16 14:28:04;;;;;;;4.57;2.40;;;;;;;;;;5100444;28;20219;-63
2022/10/16 14:30:34;;;;;;;3.17;2.10;;;;;;;;;;5100535;28;20265;-63
2022/10/16 14:33:03;;;;;;;5.83;2.30;;;;;;;;;;5100490;28;20221;-63
2022/10/16 14:35:32;;;;;;;6.17;2.37;;;;;;;;;;5100638;28;20223;-63
2022/10/16 14:38:01;;;;;;;4.10;2.37;;;;;;;;;;5100532;28;20219;-63
2022/10/16 14:40:30;;;;;;;2.20;2.00;;;;;;;;;;5100843;28;20215;-63
2022/10/16 14:42:58;;;;;;;5.93;3.20;;;;;;;;;;5100590;28;20204;-63
2022/10/16 14:45:27;;;;;;;3.47;1.97;;;;;;;;;;5100123;28;20573;-63
2022/10/16 14:47:59;;;;;;;3.53;2.50;;;;;;;;;;5098675;28;20227;-63
2022/10/16 14:50:28;;;;;;;3.57;2.37;;;;;;;;;;5099496;28;20212;-63
2022/10/16 14:52:56;;;;;;;3.60;2.47;;;;;;;;;;5098914;28;20250;-63
2022/10/16 14:55:25;;;;;;;4.03;2.27;;;;;;;;;;5100319;28;20208;-63
2022/10/16 14:57:53;;;;;;;2.30;2.10;;;;;;;;;;5100435;28;20211;-63
2022/10/16 15:00:27;;;;;;;3.17;2.20;;;;;;;;;;5100200;28;20298;-63
2022/10/16 15:02:55;;;;;;;2.97;2.00;;;;;;;;;;5100117;28;20223;-63